Bei Facebook empfehlenBei Twitter postenGoogle plusPinterest

Das Wetter im Erzgebirge am 26.02.2015

Wetter und Klima am 26.02.2015 Holzhau im Erzgebirge (630m ü.NN)
Letzte gemessene Temperatur und Uhrzeit der Messung23:45:00 Uhr-4.70 °C
Temperatur (Maximum / Höchstwert) und Uhrzeit der Messung14:00:00 Uhr8.10 °C
Temperatur (Minimum / Tiefstwert) und Uhrzeit der Messung07:30:00-7.40 °C
Errechneter Absolutwert der Temperaturschwankungen zwischen Tmin und Tmax des Tages15.50 K
Errechnete Tagesmitteltemperatur-1.00313 °C
Gesamt - Niederschlag des Tages (in flüssiger Form)0.00 Liter / m²
Luftdruck (Maximum / Höchstwert) und Zeitpunkt der Messung11:15:00 Uhr1019.40 hPa
Luftdruck (Minimum / Tiefstwert) und Zeitpunkt der Messung23:45:00 Uhr1012.90 hPa
Errechneter Absolutwert der Luftdruckschwankungen des Tages6.50 hPa
Höchste gemessene Windgeschwindigkeit und Uhrzeit der Messung05:30:00 Uhr7.92 km/h
Errechnete Windhäufigkeit in Relation zu den Messwerten des Tages7.29167 %
Niedrigste Windkühle (Windchill) und Zeitpunkt der Messung05:30:00 Uhr-10.60 °C
Taupunkt (Maximum / Höchstwert) und Uhrzeit der Messung11:00:00 Uhr3.00 °C
Taupunkt (Minimum / Tiefstwert) und Uhrzeit der Messung07:30:00-8.90 °C
Anzahl der automatisch eingelesenen Messwerte 96

Detaillierte Wetter- und Klima- Messwerte für den 26.02.2015 in Holzhau im Erzgebirge (630m ü.NN)
ZeitTemperaturLuftdruckRel. LuftfeuchteWindWindrichtungWindchillTaupunktNiederschlag l/m²
23:45:00-4.70 °C1012.90 hPa85.00 %-7.10 °C 
23:30:00-4.70 °C1013.00 hPa85.00 %-7.10 °C 
23:15:00-4.40 °C1013.20 hPa85.00 %-6.80 °C 
23:00:00-4.10 °C1013.30 hPa84.00 %-6.70 °C 
22:45:00-3.90 °C1013.60 hPa83.00 %-6.70 °C 
22:30:00-3.70 °C1013.60 hPa83.00 %-6.50 °C 
22:15:00-3.40 °C1013.90 hPa83.00 %-6.20 °C 
22:00:00-3.10 °C1014.10 hPa82.00 %-6.00 °C 
21:45:00-2.90 °C1014.40 hPa82.00 %-5.90 °C 
21:30:00-2.80 °C1014.40 hPa82.00 %-5.80 °C 
21:15:00-2.80 °C1014.70 hPa82.00 %-5.80 °C 
21:00:00-2.80 °C1014.70 hPa82.00 %-5.80 °C 
20:45:00-2.70 °C1015.00 hPa82.00 %-5.70 °C 
20:30:00-3.00 °C1015.10 hPa83.00 %-5.80 °C 
20:15:00-3.80 °C1015.20 hPa82.00 %-6.70 °C 
20:00:00-3.80 °C1015.40 hPa81.00 %-6.90 °C 
19:45:00-3.60 °C1015.50 hPa80.00 %-6.90 °C 
19:30:00-3.40 °C1015.80 hPa79.00 %-6.90 °C 
19:15:00-3.20 °C1015.90 hPa78.00 %-6.90 °C 
19:00:00-3.10 °C1015.90 hPa77.00 %-7.00 °C 
18:45:00-2.70 °C1016.00 hPa75.00 %-7.00 °C 
18:30:00-2.20 °C1016.00 hPa73.00 %-6.90 °C 
18:15:00-1.50 °C1016.00 hPa70.00 %-6.80 °C 
18:00:00-0.40 °C1016.00 hPa69.00 %-6.00 °C 
17:45:000.70 °C1016.20 hPa66.00 %-4.90 °C 
17:30:002.10 °C1016.50 hPa63.00 %-4.20 °C 
17:15:003.50 °C1016.50 hPa60.00 %-3.50 °C 
17:00:004.50 °C1016.70 hPa58.00 %-3.00 °C 
16:45:005.40 °C1016.80 hPa57.00 %-2.40 °C 
16:30:005.80 °C1017.00 hPa56.00 %-2.30 °C 
16:15:006.10 °C1017.00 hPa55.00 %-2.20 °C 
16:00:006.60 °C1017.10 hPa54.00 %-2.00 °C 
15:45:006.90 °C1017.40 hPa53.00 %-2.00 °C 
15:30:007.20 °C1017.50 hPa54.00 %-1.50 °C 
15:15:007.30 °C1017.60 hPa55.00 %-1.10 °C 
15:00:007.40 °C1017.50 hPa54.00 %-1.30 °C 
14:45:007.40 °C1017.70 hPa55.00 %-1.00 °C 
14:30:007.50 °C1017.80 hPa53.00 %-1.40 °C 
14:15:007.60 °C1018.10 hPa53.00 %6.84 km/hSSW6.50 °C-1.40 °C 
14:00:008.10 °C1018.00 hPa54.00 %-0.60 °C 
13:45:008.10 °C1018.20 hPa55.00 %-0.40 °C 
13:30:008.10 °C1018.40 hPa56.00 %-0.10 °C 
13:15:007.90 °C1018.50 hPa56.00 %4.32 km/hS7.90 °C-0.30 °C 
13:00:008.10 °C1018.70 hPa56.00 %-0.10 °C 
12:45:007.90 °C1018.80 hPa58.00 %0.20 °C 
12:30:008.10 °C1019.00 hPa60.00 %0.80 °C 
12:15:008.10 °C1018.90 hPa61.00 %1.00 °C 
12:00:007.80 °C1019.10 hPa64.00 %1.40 °C 
11:45:007.50 °C1019.20 hPa65.00 %1.40 °C 
11:30:007.40 °C1019.20 hPa71.00 %2.50 °C 
11:15:006.90 °C1019.40 hPa75.00 %2.80 °C 
11:00:006.40 °C1019.20 hPa79.00 %3.00 °C 
10:45:005.50 °C1019.20 hPa84.00 %3.00 °C 
10:30:004.10 °C1019.10 hPa87.00 %2.10 °C 
10:15:002.40 °C1019.10 hPa89.00 %0.80 °C 
10:00:000.90 °C1019.10 hPa90.00 %-0.50 °C 
09:45:00-0.10 °C1019.10 hPa91.00 %-1.50 °C 
09:30:00-1.10 °C1019.00 hPa91.00 %-2.50 °C 
09:15:00-2.40 °C1019.10 hPa91.00 %-3.80 °C 
09:00:00-3.50 °C1019.10 hPa91.00 %-4.90 °C 
08:45:00-4.50 °C1019.10 hPa91.00 %-5.90 °C 
08:30:00-5.70 °C1019.10 hPa91.00 %-7.10 °C 
08:15:00-6.80 °C1018.90 hPa90.00 %-8.30 °C 
08:00:00-7.10 °C1019.00 hPa90.00 %-8.60 °C 
07:45:00-7.10 °C1018.80 hPa90.00 %-8.60 °C 
07:30:00-7.40 °C1019.00 hPa90.00 %-8.90 °C 
07:15:00-7.10 °C1018.70 hPa90.00 %-8.60 °C 
07:00:00-7.20 °C1018.80 hPa90.00 %-8.70 °C 
06:45:00-7.10 °C1018.70 hPa90.00 %-8.60 °C 
06:30:00-7.00 °C1018.60 hPa90.00 %-8.50 °C 
06:15:00-6.80 °C1018.50 hPa90.00 %-8.30 °C 
06:00:00-6.90 °C1018.20 hPa90.00 %6.12 km/hOSO-10.00 °C-8.40 °C 
05:45:00-6.70 °C1018.30 hPa90.00 %-8.20 °C 
05:30:00-6.70 °C1018.50 hPa90.00 %7.92 km/hOSO-10.60 °C-8.20 °C 
05:15:00-6.70 °C1018.70 hPa90.00 %-8.20 °C 
05:00:00-6.40 °C1018.70 hPa90.00 %-7.90 °C 
04:45:00-6.50 °C1018.40 hPa90.00 %-8.00 °C 
04:30:00-6.40 °C1018.40 hPa90.00 %-7.90 °C 
04:15:00-6.40 °C1018.50 hPa90.00 %-7.90 °C 
04:00:00-6.20 °C1018.50 hPa89.00 %-7.90 °C 
03:45:00-6.10 °C1018.60 hPa90.00 %-7.60 °C 
03:30:00-5.70 °C1018.60 hPa90.00 %-7.20 °C 
03:15:00-5.50 °C1018.30 hPa90.00 %3.96 km/hOSO-5.50 °C-7.00 °C 
03:00:00-5.80 °C1018.60 hPa90.00 %4.68 km/hSO-5.80 °C-7.30 °C 
02:45:00-5.50 °C1018.70 hPa90.00 %-7.00 °C 
02:30:00-5.10 °C1018.60 hPa90.00 %-6.60 °C 
02:15:00-4.70 °C1018.20 hPa90.00 %-6.30 °C 
02:00:00-4.80 °C1018.20 hPa90.00 %2.52 km/hOSO-4.80 °C-6.40 °C 
01:45:00-4.80 °C1018.20 hPa90.00 %-6.40 °C 
01:30:00-4.60 °C1018.30 hPa90.00 %-6.20 °C 
01:15:00-4.70 °C1018.20 hPa90.00 %-6.30 °C 
01:00:00-4.70 °C1018.20 hPa90.00 %-6.30 °C 
00:45:00-4.60 °C1018.30 hPa89.00 %-6.30 °C 
00:30:00-4.40 °C1018.20 hPa89.00 %-6.10 °C 
00:15:00-4.10 °C1018.20 hPa89.00 %-5.80 °C 
00:00:00-4.00 °C1018.20 hPa89.00 %-5.70 °C 

Permanenter Link zu dieser Seite: Wetter im Erzgebirge am 26.02.2015
Performance-Info: Die Erstellung der Seite / Statistik(en) / Tabelle(n) erforderte 5 Datenbankserver-Abfrage(n) und dauerte 127 Millisekunden. (Dieser Messwert ist von der Gesamt-Auslastung des Servers abhängig.)
Erzgebirge - Wetter | Erzgebirge - Wetter (Mobilgeräte) | Komplette Klimadatenbank